Time;durP1;ratioP1;P1;durP2;ratioP2;P2;SDS_P1;SDS_P2;PMS_P1;PMS_P2;Temp;Humidity;BMP_temperature;BMP_pressure;BME280_temperature;BME280_humidity;BME280_pressure;Samples;Min_cycle;Max_cycle;Signal;HPM_P1;HPM_P2
2022/08/05 00:04:15;;;;;;;2.60;1.40;;;;;;;22.02;48.60;101441.97;10607969;28;20424;-72
2022/08/05 00:09:21;;;;;;;1.40;1.20;;;;;;;22.04;49.00;101441.63;10587479;28;20056;-72
2022/08/05 00:14:26;;;;;;;2.45;1.60;;;;;;;21.97;48.95;101433.78;10582581;28;20048;-72
2022/08/05 00:19:30;;;;;;;5.70;1.30;;;;;;;21.90;49.74;101447.50;10581641;28;20044;-72
2022/08/05 00:24:33;;;;;;;2.45;1.50;;;;;;;21.86;49.37;101433.34;10573094;28;21677;-72
2022/08/05 00:29:35;;;;;;;3.53;1.25;;;;;;;21.88;50.15;101439.44;10586127;28;20043;-72
2022/08/05 00:34:39;;;;;;;4.47;1.50;;;;;;;21.86;49.63;101438.94;10609597;28;20058;-71
2022/08/05 00:39:41;;;;;;;1.88;1.33;;;;;;;21.83;50.01;101433.22;10589418;28;20123;-74
2022/08/05 00:44:44;;;;;;;2.53;1.67;;;;;;;21.77;50.50;101440.16;10571204;28;20048;-72
2022/08/05 00:49:46;;;;;;;2.17;1.30;;;;;;;21.64;50.84;101450.41;10616442;28;20051;-73
2022/08/05 00:54:49;;;;;;;2.75;1.50;;;;;;;21.63;51.12;101443.19;10605310;28;20054;-74
2022/08/05 00:59:52;;;;;;;3.90;1.23;;;;;;;21.63;50.93;101441.22;10592589;28;20055;-72
2022/08/05 01:04:55;;;;;;;2.35;1.50;;;;;;;21.61;50.60;101434.34;10597388;28;20047;-72
2022/08/05 01:10:01;;;;;;;2.15;1.60;;;;;;;21.59;50.82;101436.66;10611395;28;20040;-72
2022/08/05 01:15:05;;;;;;;2.05;1.67;;;;;;;21.51;50.49;101443.91;10591575;28;20058;-73
2022/08/05 01:20:36;;;;;;;3.28;1.58;;;;;;;21.43;51.63;101441.97;10597663;28;20031;-72
2022/08/05 01:26:03;;;;;;;3.88;1.70;;;;;;;21.44;51.56;101428.84;10614444;28;20036;-73
2022/08/05 01:31:24;;;;;;;3.30;1.75;;;;;;;21.41;51.24;101427.53;10584038;28;20416;-73
2022/08/05 01:36:30;;;;;;;3.47;1.90;;;;;;;21.39;51.31;101426.25;10573420;28;20036;-72
2022/08/05 01:41:34;;;;;;;2.83;1.60;;;;;;;21.46;51.54;101429.31;10607019;28;20412;-71
2022/08/05 01:46:38;;;;;;;2.38;1.60;;;;;;;21.42;51.96;101426.38;10571547;28;20438;-71
2022/08/05 01:51:41;;;;;;;5.32;1.67;;;;;;;21.38;51.47;101430.19;10610497;28;20441;-71
2022/08/05 01:56:44;;;;;;;5.20;1.70;;;;;;;21.26;52.01;101428.91;10573409;28;20036;-72
2022/08/05 02:01:48;;;;;;;5.80;2.10;;;;;;;21.10;52.28;101429.75;10610448;28;20511;-71
2022/08/05 02:06:51;;;;;;;4.10;2.00;;;;;;;20.95;52.42;101431.91;10583973;28;20497;-71
2022/08/05 02:12:04;;;;;;;4.13;2.40;;;;;;;21.00;52.94;101428.13;10588634;28;20054;-70
2022/08/05 02:17:11;;;;;;;4.65;2.28;;;;;;;20.92;53.35;101434.56;10577831;28;20032;-70
2022/08/05 02:22:20;;;;;;;3.80;2.37;;;;;;;20.92;53.13;101434.56;10584657;28;20043;-71
2022/08/05 02:27:23;;;;;;;5.20;2.55;;;;;;;20.93;53.20;101427.81;10569958;28;20039;-71
2022/08/05 02:32:28;;;;;;;5.07;2.85;;;;;;;21.04;53.03;101431.91;10575203;28;20040;-71
2022/08/05 02:37:32;;;;;;;7.72;3.25;;;;;;;21.02;53.32;101428.63;10580369;28;20043;-71
2022/08/05 02:42:36;;;;;;;6.45;2.95;;;;;;;20.90;53.52;101434.06;10575483;28;20043;-71
2022/08/05 02:47:39;;;;;;;8.20;2.67;;;;;;;20.87;53.40;101434.75;10589572;28;20040;-71
2022/08/05 02:52:43;;;;;;;9.43;3.50;;;;;;;21.04;53.60;101423.53;10575707;28;20047;-71
2022/08/05 02:57:47;;;;;;;8.00;2.97;;;;;;;21.28;52.97;101423.81;10569583;28;20066;-71
2022/08/05 03:02:50;;;;;;;6.82;3.08;;;;;;;21.57;52.77;101431.41;10585206;28;20031;-71
2022/08/05 03:07:53;;;;;;;6.40;2.85;;;;;;;21.89;52.27;101435.50;10553249;27;20055;-71
2022/08/05 03:12:59;;;;;;;8.20;3.55;;;;;;;21.94;51.97;101440.88;10566547;28;20520;-71
2022/08/05 03:18:02;;;;;;;8.50;3.58;;;;;;;22.10;51.64;101432.75;10587246;28;20051;-71
2022/08/05 03:23:07;;;;;;;6.85;3.25;;;;;;;22.36;52.15;101440.09;10554939;28;20040;-71
2022/08/05 03:28:10;;;;;;;8.45;3.50;;;;;;;22.64;52.24;101434.78;10562324;28;20074;-71
2022/08/05 03:33:12;;;;;;;7.78;3.47;;;;;;;22.91;51.19;101438.97;10589278;28;20028;-71
2022/08/05 03:38:16;;;;;;;8.25;3.22;;;;;;;23.23;50.15;101445.69;10560733;28;20040;-70
2022/08/05 03:43:19;;;;;;;5.70;3.92;;;;;;;23.46;49.23;101442.13;10577015;28;20044;-71
2022/08/05 03:48:22;;;;;;;8.00;3.40;;;;;;;23.49;49.10;101440.59;10590752;28;20038;-71
2022/08/05 03:53:24;;;;;;;6.13;3.45;;;;;;;23.62;49.11;101444.25;10578770;28;20126;-70
2022/08/05 03:58:29;;;;;;;8.23;3.25;;;;;;;23.70;48.47;101437.72;10610719;28;20050;-71
2022/08/05 04:03:36;;;;;;;8.30;3.40;;;;;;;23.93;47.74;101444.44;10561450;28;20043;-71
2022/08/05 04:08:39;;;;;;;6.83;3.50;;;;;;;24.03;47.24;101440.38;10603724;28;20042;-71
2022/08/05 04:13:43;;;;;;;5.38;3.08;;;;;;;24.17;47.38;101440.00;10561284;28;20047;-71
2022/08/05 04:18:46;;;;;;;6.90;3.50;;;;;;;24.35;46.53;101441.38;10551772;28;20046;-71
2022/08/05 04:23:51;;;;;;;7.82;4.00;;;;;;;24.70;46.25;101450.00;10582508;28;20044;-71
2022/08/05 04:28:53;;;;;;;8.57;3.10;;;;;;;24.82;47.04;101455.59;10568876;28;20051;-71
2022/08/05 04:33:56;;;;;;;7.53;3.33;;;;;;;25.07;45.47;101452.66;10599865;28;20541;-71
2022/08/05 04:38:59;;;;;;;8.65;3.67;;;;;;;25.50;44.50;101446.97;10574514;28;20449;-70
2022/08/05 04:44:02;;;;;;;7.82;3.17;;;;;;;25.89;44.52;101454.78;10593781;28;20405;-71
2022/08/05 04:49:07;;;;;;;7.63;3.65;;;;;;;26.08;44.39;101466.06;10595704;28;20059;-71
2022/08/05 04:54:09;;;;;;;7.75;3.67;;;;;;;26.20;43.11;101451.84;10615296;28;20036;-71
2022/08/05 04:59:13;;;;;;;4.97;2.88;;;;;;;26.29;43.72;101446.03;10595424;28;20047;-71
2022/08/05 05:04:15;;;;;;;6.72;3.47;;;;;;;26.64;42.29;101449.63;10609927;28;20040;-71
2022/08/05 05:09:18;;;;;;;14.30;4.13;;;;;;;26.89;42.64;101458.56;10605310;28;20055;-71
2022/08/05 05:14:20;;;;;;;10.18;3.90;;;;;;;27.29;41.03;101451.72;10608993;28;20070;-71
2022/08/05 05:19:22;;;;;;;3.65;2.65;;;;;;;27.52;41.31;101455.31;10595554;28;20058;-71
2022/08/05 05:24:25;;;;;;;7.30;2.85;;;;;;;28.20;39.38;101457.22;10612259;28;20047;-71
2022/08/05 05:29:27;;;;;;;6.68;3.17;;;;;;;28.67;38.59;101453.03;10592901;28;20501;-72
2022/08/05 05:34:30;;;;;;;6.10;3.00;;;;;;;28.96;38.17;101454.16;10594093;28;20047;-71
2022/08/05 05:39:32;;;;;;;6.97;2.90;;;;;;;29.17;37.44;101459.25;10612321;28;20052;-69
2022/08/05 05:44:34;;;;;;;7.25;3.22;;;;;;;29.36;37.98;101461.06;10607628;28;20048;-71
2022/08/05 05:49:37;;;;;;;21.33;4.50;;;;;;;29.59;37.86;101456.03;10612684;28;20035;-71
2022/08/05 05:54:39;;;;;;;9.40;3.75;;;;;;;29.86;37.01;101462.31;10612160;28;20040;-71
2022/08/05 05:59:41;;;;;;;10.40;3.58;;;;;;;29.92;36.47;101457.06;10586613;28;20043;-71
2022/08/05 06:04:43;;;;;;;5.95;2.95;;;;;;;29.92;36.69;101455.06;10607567;28;20036;-71
2022/08/05 06:09:47;;;;;;;8.55;3.20;;;;;;;30.38;36.10;101459.41;10611031;28;20028;-69
2022/08/05 06:14:50;;;;;;;9.43;3.50;;;;;;;30.52;35.89;101456.63;10569101;28;1143359;-70
2022/08/05 06:19:52;;;;;;;7.93;2.75;;;;;;;30.78;35.22;101464.06;10594372;28;20429;-70
2022/08/05 06:24:55;;;;;;;6.10;3.15;;;;;;;31.21;34.97;101456.47;10613587;28;20040;-70
2022/08/05 06:29:57;;;;;;;7.78;3.10;;;;;;;31.76;34.19;101450.41;10611874;28;20039;-70
2022/08/05 06:35:00;;;;;;;9.82;3.00;;;;;;;32.31;33.76;101455.63;10593551;28;20044;-70
2022/08/05 06:40:04;;;;;;;6.75;3.03;;;;;;;32.75;32.43;101451.38;10594665;28;20430;-71
2022/08/05 06:45:07;;;;;;;7.95;2.50;;;;;;;32.82;31.97;101457.06;10589593;28;20048;-71
2022/08/05 06:50:10;;;;;;;9.70;2.58;;;;;;;33.01;31.77;101447.19;10602741;28;20047;-71
2022/08/05 06:55:12;;;;;;;5.10;2.53;;;;;;;33.15;31.71;101453.59;10590536;28;20496;-71
2022/08/05 07:00:17;;;;;;;4.93;2.20;;;;;;;33.33;31.47;101450.66;10592349;28;20039;-71
2022/08/05 07:05:19;;;;;;;5.15;2.50;;;;;;;33.15;31.49;101450.75;10608559;28;20047;-71
2022/08/05 07:10:24;;;;;;;7.22;2.35;;;;;;;33.47;31.20;101441.19;10595282;28;20039;-71
2022/08/05 07:20:48;;;;;;;3.15;2.20;;;;;;;33.68;30.32;101451.59;10591586;28;20058;-72
2022/08/05 07:25:50;;;;;;;7.03;2.08;;;;;;;33.88;30.31;101454.69;10610875;28;20153;-72
2022/08/05 07:30:52;;;;;;;7.35;2.10;;;;;;;34.13;30.18;101455.22;10608793;28;20036;-73
2022/08/05 07:35:54;;;;;;;6.45;2.10;;;;;;;34.47;29.47;101458.91;10606925;28;20048;-72
2022/08/05 07:40:57;;;;;;;3.08;1.70;;;;;;;34.39;28.81;101463.09;10605838;28;20052;-72
2022/08/05 07:45:59;;;;;;;4.05;1.55;;;;;;;34.37;29.37;101457.00;10609258;28;20047;-72
2022/08/05 07:51:01;;;;;;;4.85;2.00;;;;;;;34.57;28.51;101456.34;10603382;28;20032;-72
2022/08/05 07:56:04;;;;;;;8.07;1.83;;;;;;;34.34;28.84;101442.75;10601970;28;20062;-72
2022/08/05 08:01:07;;;;;;;4.40;1.85;;;;;;;34.50;29.09;101451.53;10602125;28;20035;-72
2022/08/05 08:06:10;;;;;;;4.10;1.70;;;;;;;34.17;29.17;101451.09;10603240;28;20052;-72
2022/08/05 08:11:14;;;;;;;3.80;1.70;;;;;;;34.01;28.42;101450.84;10579363;28;20044;-72
2022/08/05 08:16:16;;;;;;;2.83;1.60;;;;;;;33.60;28.57;101444.31;10607264;28;20043;-72
2022/08/05 08:21:18;;;;;;;3.05;1.60;;;;;;;33.91;28.19;101439.59;10575031;28;20048;-72
2022/08/05 08:26:20;;;;;;;3.90;1.50;;;;;;;33.96;28.29;101442.78;10584105;28;20405;-72
2022/08/05 08:31:23;;;;;;;3.90;1.52;;;;;;;34.10;27.36;101439.78;10600746;28;20046;-72
2022/08/05 08:36:28;;;;;;;4.45;1.27;;;;;;;34.14;27.36;101428.34;10596292;28;20096;-72
2022/08/05 08:41:32;;;;;;;1.90;1.40;;;;;;;34.31;27.03;101429.34;10609197;28;20048;-72
2022/08/05 08:46:34;;;;;;;1.30;1.20;;;;;;;34.31;26.61;101421.63;10616372;28;20066;-72
2022/08/05 08:51:37;;;;;;;4.95;2.55;;;;;;;34.25;27.65;101423.34;10612996;28;20043;-72
2022/08/05 08:56:40;;;;;;;1.92;1.50;;;;;;;34.47;27.46;101419.00;10601538;28;20047;-71
2022/08/05 09:01:44;;;;;;;2.85;1.70;;;;;;;34.38;26.98;101424.44;10602797;28;20075;-71
2022/08/05 09:06:47;;;;;;;2.38;1.30;;;;;;;34.41;27.06;101420.72;10572401;28;20043;-70
2022/08/05 09:11:49;;;;;;;4.43;1.67;;;;;;;34.22;26.78;101418.50;10589552;28;20050;-70
2022/08/05 09:16:51;;;;;;;3.53;1.58;;;;;;;33.79;27.25;101415.25;10580176;28;20039;-70
2022/08/05 09:21:53;;;;;;;2.88;1.60;;;;;;;33.51;27.32;101414.31;10590482;28;20059;-70
2022/08/05 09:26:57;;;;;;;3.50;1.40;;;;;;;33.17;26.79;101408.50;10613629;28;20056;-71
2022/08/05 09:32:03;;;;;;;2.30;1.15;;;;;;;33.09;27.38;101398.38;10614053;28;20051;-70
2022/08/05 09:37:16;;;;;;;2.50;1.33;;;;;;;32.74;27.85;101398.59;10597701;28;20413;-70
2022/08/05 09:42:19;;;;;;;3.28;1.35;;;;;;;32.21;28.30;101394.75;10599263;28;20035;-70
2022/08/05 09:47:24;;;;;;;2.80;1.30;;;;;;;31.31;28.91;101390.44;10606554;28;20055;-70
2022/08/05 09:52:31;;;;;;;6.93;1.60;;;;;;;30.58;29.85;101404.06;10605831;28;20055;-71
2022/08/05 09:57:39;;;;;;;1.88;1.35;;;;;;;30.12;30.48;101396.16;10609824;28;20413;-70
2022/08/05 10:02:44;;;;;;;2.50;1.60;;;;;;;29.82;31.46;101396.38;10599486;28;20043;-70
2022/08/05 10:07:46;;;;;;;2.28;1.50;;;;;;;29.62;32.53;101397.84;10612246;28;20039;-70
2022/08/05 10:12:56;;;;;;;3.85;1.80;;;;;;;29.47;33.39;101398.94;10588839;28;20502;-70
2022/08/05 10:18:09;;;;;;;4.20;2.05;;;;;;;29.36;34.39;101399.66;10572475;28;20044;-70
2022/08/05 10:23:24;;;;;;;2.20;1.98;;;;;;;29.33;34.74;101386.31;10574130;28;20051;-71
2022/08/05 10:28:31;;;;;;;6.10;2.45;;;;;;;29.27;35.96;101393.50;10567415;28;20054;-70
2022/08/05 10:33:38;;;;;;;2.00;1.88;;;;;;;29.10;36.24;101386.50;10576829;28;20047;-71
2022/08/05 10:38:43;;;;;;;5.70;2.65;;;;;;;29.00;36.42;101375.09;10595772;28;20048;-71
2022/08/05 10:43:49;;;;;;;4.53;2.35;;;;;;;28.92;37.49;101390.34;10575449;28;20067;-71
2022/08/05 10:48:56;;;;;;;3.10;2.80;;;;;;;28.80;38.30;101378.09;10610273;28;20055;-71
2022/08/05 10:54:00;;;;;;;3.42;2.33;;;;;;;28.83;38.52;101373.72;10612056;28;20062;-71
2022/08/05 10:59:05;;;;;;;3.38;2.50;;;;;;;28.82;39.39;101364.41;10610402;28;20043;-72
2022/08/05 11:04:10;;;;;;;3.45;2.67;;;;;;;28.83;39.37;101353.94;10603994;28;20508;-72
2022/08/05 11:09:20;;;;;;;3.50;2.50;;;;;;;28.77;39.74;101367.56;10581454;28;20036;-71
2022/08/05 11:14:30;;;;;;;2.80;2.38;;;;;;;28.61;38.66;101361.34;10575731;28;20409;-71
2022/08/05 11:19:43;;;;;;;2.90;2.50;;;;;;;28.55;39.66;101360.09;10598891;28;20058;-71
2022/08/05 11:24:45;;;;;;;2.95;2.28;;;;;;;28.60;40.02;101353.28;10607939;28;20070;-71
2022/08/05 11:29:58;;;;;;;2.85;2.53;;;;;;;28.61;39.52;101352.88;10605867;28;20414;-71
2022/08/05 11:35:00;;;;;;;3.88;2.50;;;;;;;28.61;39.84;101358.53;10557205;28;20043;-71
2022/08/05 11:40:03;;;;;;;4.25;2.67;;;;;;;28.55;38.98;101353.63;10560246;28;20055;-72
2022/08/05 11:45:07;;;;;;;5.22;2.42;;;;;;;28.56;39.65;101338.31;10607443;28;20043;-72
2022/08/05 11:50:11;;;;;;;4.45;3.00;;;;;;;28.58;39.86;101336.72;10608631;28;20047;-72
2022/08/05 11:55:14;;;;;;;2.50;2.25;;;;;;;28.60;39.64;101333.50;10610059;28;20421;-72
2022/08/05 12:00:30;;;;;;;2.78;2.47;;;;;;;28.48;39.10;101338.25;10607875;28;20521;-73
2022/08/05 12:05:32;;;;;;;3.90;2.85;;;;;;;28.45;39.25;101339.00;10597186;28;20054;-72
2022/08/05 12:10:35;;;;;;;3.40;2.90;;;;;;;28.41;39.87;101323.22;10601284;28;20043;-72
2022/08/05 12:15:42;;;;;;;3.80;2.85;;;;;;;28.37;39.57;101328.81;10592121;28;20502;-71
2022/08/05 12:20:44;;;;;;;2.83;2.47;;;;;;;28.36;39.90;101315.91;10565781;28;20056;-72
2022/08/05 12:25:54;;;;;;;2.92;2.70;;;;;;;28.38;39.49;101312.69;10589332;28;20038;-71
2022/08/05 12:30:56;;;;;;;2.88;2.65;;;;;;;28.38;39.46;101321.97;10576525;28;20070;-72
2022/08/05 12:36:00;;;;;;;2.97;2.70;;;;;;;28.39;40.40;101323.59;10586992;28;20039;-71
2022/08/05 12:41:02;;;;;;;3.13;2.83;;;;;;;28.38;40.76;101321.16;10593716;28;20063;-71
2022/08/05 12:46:04;;;;;;;4.07;2.95;;;;;;;28.38;40.39;101315.53;10589164;28;20040;-71
2022/08/05 12:51:12;;;;;;;3.40;2.65;;;;;;;28.39;40.13;101300.22;10541644;28;20525;-71
2022/08/05 12:56:16;;;;;;;3.10;2.80;;;;;;;28.39;40.69;101308.69;10575830;28;20414;-71
2022/08/05 13:01:21;;;;;;;4.80;2.97;;;;;;;28.40;40.54;101297.00;10571586;28;20048;-71
2022/08/05 13:06:25;;;;;;;3.58;3.08;;;;;;;28.41;40.27;101289.34;10556292;28;20036;-71
2022/08/05 13:11:28;;;;;;;3.80;2.88;;;;;;;28.43;40.66;101293.41;10586846;28;20067;-71
2022/08/05 13:16:30;;;;;;;5.70;3.35;;;;;;;28.41;40.56;101286.50;10610799;28;20438;-74
2022/08/05 13:21:32;;;;;;;3.40;3.10;;;;;;;28.42;40.07;101283.31;10585039;28;20058;-71
2022/08/05 13:26:35;;;;;;;7.55;2.92;;;;;;;28.35;39.23;101276.78;10599879;28;20421;-71
2022/08/05 13:31:37;;;;;;;4.65;2.85;;;;;;;28.24;38.94;101274.63;10615432;28;20509;-72
2022/08/05 13:36:39;;;;;;;4.70;2.55;;;;;;;28.20;39.54;101270.94;10574718;28;20048;-72
2022/08/05 13:41:42;;;;;;;3.60;2.70;;;;;;;28.21;40.24;101263.28;10588279;28;20051;-72
2022/08/05 13:46:44;;;;;;;3.55;2.88;;;;;;;28.11;39.60;101256.31;10595310;28;20038;-73
2022/08/05 13:51:46;;;;;;;4.18;2.75;;;;;;;28.10;40.32;101253.88;10610832;28;20043;-72
2022/08/05 13:56:48;;;;;;;3.03;2.78;;;;;;;28.07;39.85;101244.19;10608285;28;20055;-71
2022/08/05 14:01:53;;;;;;;3.25;2.97;;;;;;;28.09;40.00;101236.16;10591531;28;20059;-69
2022/08/05 14:06:56;;;;;;;3.70;3.20;;;;;;;28.04;40.85;101244.16;10587534;28;20421;-71
2022/08/05 14:11:58;;;;;;;2.85;2.65;;;;;;;28.01;39.60;101242.09;10611748;28;20048;-71
2022/08/05 14:17:00;;;;;;;3.60;3.20;;;;;;;28.00;40.15;101241.28;10610796;28;20551;-71
2022/08/05 14:22:02;;;;;;;4.35;3.20;;;;;;;27.96;40.35;101220.69;10574065;28;20536;-71
2022/08/05 14:27:05;;;;;;;3.22;2.92;;;;;;;27.92;40.65;101226.28;10610293;28;20039;-71
2022/08/05 14:32:08;;;;;;;5.07;3.50;;;;;;;27.90;41.51;101219.41;10587818;28;20040;-71
2022/08/05 14:37:10;;;;;;;7.50;4.35;;;;;;;27.92;41.87;101209.34;10612314;28;20039;-70
2022/08/05 14:42:12;;;;;;;3.20;2.88;;;;;;;27.93;42.24;101208.16;10599492;28;20052;-71
2022/08/05 14:47:14;;;;;;;3.55;3.25;;;;;;;27.92;41.74;101217.81;10567593;28;20437;-70
2022/08/05 14:52:16;;;;;;;3.72;3.22;;;;;;;27.87;41.66;101201.25;10596094;27;20031;-71
2022/08/05 14:57:19;;;;;;;3.47;2.67;;;;;;;27.84;42.00;101202.03;10579239;28;20051;-71
2022/08/05 15:02:21;;;;;;;3.92;3.10;;;;;;;27.84;41.78;101196.38;10587144;28;20063;-71
2022/08/05 15:07:23;;;;;;;4.07;3.33;;;;;;;27.85;41.19;101192.38;10583011;28;20052;-72
2022/08/05 15:12:25;;;;;;;4.60;3.60;;;;;;;27.84;40.54;101195.56;10585480;28;20055;-71
2022/08/05 15:17:27;;;;;;;3.28;2.97;;;;;;;27.82;41.27;101183.88;10590540;28;20433;-71
2022/08/05 15:22:30;;;;;;;5.35;3.40;;;;;;;27.80;41.67;101189.91;10583404;28;20047;-72
2022/08/05 15:27:32;;;;;;;5.25;3.13;;;;;;;27.80;41.59;101177.81;10577351;28;20512;-72
2022/08/05 15:32:34;;;;;;;3.60;2.80;;;;;;;27.79;40.65;101181.81;10572588;28;20043;-73
2022/08/05 15:37:36;;;;;;;4.38;3.28;;;;;;;27.75;41.40;101181.75;10590790;28;20611;-72
2022/08/05 15:42:38;;;;;;;6.53;3.47;;;;;;;27.71;40.33;101180.91;10576215;28;20040;-72
2022/08/05 15:47:41;;;;;;;3.72;3.33;;;;;;;27.64;40.65;101180.84;10592084;28;20044;-73
2022/08/05 15:52:44;;;;;;;3.33;2.60;;;;;;;27.57;40.97;101163.78;10585760;28;20485;-72
2022/08/05 15:57:46;;;;;;;3.63;2.63;;;;;;;27.51;41.42;101173.78;10588054;28;20031;-73
2022/08/05 16:02:48;;;;;;;2.97;2.50;;;;;;;27.44;41.66;101162.44;10588622;28;20417;-72
2022/08/05 16:07:50;;;;;;;6.10;2.78;;;;;;;27.42;41.32;101161.97;10591927;28;20036;-72
2022/08/05 16:12:52;;;;;;;3.03;2.72;;;;;;;27.40;41.71;101153.91;10605601;28;20052;-72
2022/08/05 16:17:55;;;;;;;3.08;2.78;;;;;;;27.37;40.90;101145.41;10591769;28;20412;-70
2022/08/05 16:22:57;;;;;;;4.00;2.78;;;;;;;27.34;41.02;101155.47;10588385;28;20044;-71
2022/08/05 16:28:04;;;;;;;4.90;3.72;;;;;;;27.37;42.27;101153.88;10616191;28;20058;-70
2022/08/05 16:33:06;;;;;;;2.90;2.67;;;;;;;27.33;42.59;101154.66;10575589;28;20056;-74
2022/08/05 16:38:09;;;;;;;4.18;2.88;;;;;;;27.27;41.96;101156.19;10588821;28;20047;-72
2022/08/05 16:43:11;;;;;;;3.33;2.80;;;;;;;27.24;42.96;101145.66;10557767;28;20050;-72
2022/08/05 16:48:14;;;;;;;3.10;2.72;;;;;;;27.20;42.86;101150.44;10601356;28;20047;-70
2022/08/05 16:53:16;;;;;;;2.72;2.42;;;;;;;27.15;42.94;101133.88;10593315;28;20039;-74
2022/08/05 16:58:18;;;;;;;4.35;2.95;;;;;;;27.11;43.14;101141.47;10559524;28;20032;-73
2022/08/05 17:03:22;;;;;;;5.03;3.45;;;;;;;27.09;42.95;101143.88;10585845;28;20044;-72
2022/08/05 17:08:26;;;;;;;4.72;3.65;;;;;;;27.04;44.48;101135.72;10591490;27;20047;-72
2022/08/05 17:13:28;;;;;;;3.50;2.95;;;;;;;27.01;43.73;101142.13;10580371;28;20036;-71
2022/08/05 17:18:31;;;;;;;4.30;3.10;;;;;;;26.96;43.88;101145.25;10572076;28;20051;-73
2022/08/05 17:23:34;;;;;;;4.03;3.20;;;;;;;26.88;44.44;101132.25;10602489;28;20044;-73
2022/08/05 17:28:37;;;;;;;3.33;3.03;;;;;;;26.84;44.05;101132.19;10579321;28;20040;-73
2022/08/05 17:33:39;;;;;;;4.38;3.08;;;;;;;26.79;45.22;101143.00;10603444;28;20044;-70
2022/08/05 17:38:41;;;;;;;6.20;3.13;;;;;;;26.71;44.87;101142.88;10596273;28;20055;-70
2022/08/05 17:43:46;;;;;;;5.20;3.63;;;;;;;26.67;45.22;101147.63;10576900;28;20043;-69
2022/08/05 17:48:48;;;;;;;3.75;3.40;;;;;;;26.60;45.00;101136.28;10581881;28;20051;-73
2022/08/05 17:53:50;;;;;;;4.32;3.30;;;;;;;26.55;45.77;101136.56;10582071;28;20047;-70
2022/08/05 17:58:52;;;;;;;3.50;3.10;;;;;;;26.50;46.26;101136.09;10602248;28;20036;-69
2022/08/05 18:03:56;;;;;;;4.75;2.92;;;;;;;26.46;46.25;101123.97;10587130;28;20039;-74
2022/08/05 18:08:58;;;;;;;3.70;3.30;;;;;;;26.41;46.42;101134.38;10587115;28;20074;-74
2022/08/05 18:14:04;;;;;;;5.80;3.67;;;;;;;26.37;46.03;101139.09;10567432;28;20043;-72
2022/08/05 18:19:06;;;;;;;5.00;4.15;;;;;;;26.31;46.86;101136.97;10538012;28;20035;-71
2022/08/05 18:24:08;;;;;;;7.57;3.90;;;;;;;26.28;46.09;101140.53;10602361;28;20050;-69
2022/08/05 18:29:10;;;;;;;5.50;3.90;;;;;;;26.23;47.08;101135.22;10593761;28;20448;-69
2022/08/05 18:34:13;;;;;;;6.75;3.70;;;;;;;26.17;47.70;101136.72;10599435;28;20045;-68
2022/08/05 18:39:15;;;;;;;5.30;3.50;;;;;;;26.08;47.03;101136.97;10581194;28;20042;-68
2022/08/05 18:44:18;;;;;;;5.15;3.78;;;;;;;26.03;47.17;101137.25;10595254;28;20405;-68
2022/08/05 18:54:40;;;;;;;6.45;4.03;;;;;;;25.93;48.49;101126.66;10590641;28;20051;-69
2022/08/05 18:59:43;;;;;;;4.65;3.60;;;;;;;25.88;48.17;101130.59;10585597;28;20036;-69
2022/08/05 19:04:45;;;;;;;4.00;3.42;;;;;;;25.84;49.03;101126.88;10602125;28;20497;-69
2022/08/05 19:09:47;;;;;;;5.50;3.83;;;;;;;25.79;49.53;101128.00;10601054;28;20048;-69
2022/08/05 19:14:49;;;;;;;7.38;5.03;;;;;;;25.74;49.56;101130.31;10567657;28;20059;-68
2022/08/05 19:19:51;;;;;;;9.30;4.70;;;;;;;25.68;50.57;101126.16;10595594;28;20039;-70
2022/08/05 19:24:59;;;;;;;5.63;4.93;;;;;;;25.62;50.76;101122.81;10577828;28;20055;-70
2022/08/05 19:30:05;;;;;;;8.23;5.18;;;;;;;25.54;50.54;101127.50;10597751;28;20054;-68
2022/08/05 19:35:08;;;;;;;9.55;5.97;;;;;;;25.46;50.66;101117.28;10586407;28;20050;-69
2022/08/05 19:40:10;;;;;;;9.60;5.50;;;;;;;25.38;52.04;101115.53;10570929;28;20059;-68
2022/08/05 19:45:13;;;;;;;9.23;5.78;;;;;;;25.33;52.51;101115.81;10589853;28;20063;-70
2022/08/05 19:50:15;;;;;;;9.25;5.90;;;;;;;25.29;52.50;101111.31;10572250;28;20048;-70
2022/08/05 19:55:17;;;;;;;9.52;5.75;;;;;;;25.22;52.70;101121.22;10560490;28;20043;-70
2022/08/05 20:00:19;;;;;;;7.40;5.22;;;;;;;25.16;52.83;101110.63;10588267;28;20040;-72
2022/08/05 20:05:25;;;;;;;8.40;5.22;;;;;;;25.11;53.84;101108.94;10583017;28;20036;-72
2022/08/05 20:10:32;;;;;;;7.07;5.65;;;;;;;25.06;54.13;101111.22;10596356;28;20043;-72
2022/08/05 20:15:35;;;;;;;6.05;5.20;;;;;;;25.02;54.66;101110.34;10577824;28;20047;-70
2022/08/05 20:20:42;;;;;;;10.60;6.47;;;;;;;24.98;55.33;101100.97;10597723;28;20035;-70
2022/08/05 20:25:44;;;;;;;11.35;5.63;;;;;;;24.92;56.07;101108.88;10585252;28;20048;-70
2022/08/05 20:30:47;;;;;;;9.82;6.32;;;;;;;24.85;56.42;101106.75;10592233;28;20059;-70
2022/08/05 20:35:50;;;;;;;7.47;5.32;;;;;;;24.77;55.83;101099.34;10588901;28;20048;-70
2022/08/05 20:40:53;;;;;;;7.00;5.65;;;;;;;24.74;56.90;101086.03;10597996;28;20058;-70
2022/08/05 20:45:56;;;;;;;8.23;6.22;;;;;;;24.69;56.78;101079.91;10596434;28;20047;-70
2022/08/05 20:51:00;;;;;;;8.57;5.65;;;;;;;24.62;57.48;101088.94;10602933;28;20390;-70
2022/08/05 20:56:03;;;;;;;9.25;6.07;;;;;;;24.58;57.94;101079.66;10569528;28;20032;-70
2022/08/05 21:01:06;;;;;;;9.07;6.38;;;;;;;24.52;58.68;101087.53;10582947;28;20050;-70
2022/08/05 21:06:08;;;;;;;6.95;5.32;;;;;;;24.47;58.42;101078.56;10561933;28;22615;-70
2022/08/05 21:11:14;;;;;;;7.90;5.72;;;;;;;24.40;58.50;101075.63;10561972;28;20043;-70
2022/08/05 21:16:18;;;;;;;8.93;6.55;;;;;;;24.35;59.46;101080.34;10578071;28;20044;-70
2022/08/05 21:21:20;;;;;;;10.30;5.90;;;;;;;24.31;59.74;101070.22;10577792;28;20059;-70
2022/08/05 21:26:22;;;;;;;10.70;6.90;;;;;;;24.26;60.26;101074.06;10583260;28;20047;-69
2022/08/05 21:31:25;;;;;;;7.40;6.18;;;;;;;24.23;60.25;101068.38;10560189;28;20534;-76
2022/08/05 21:36:28;;;;;;;9.55;7.28;;;;;;;24.16;60.90;101069.00;10563176;28;20039;-76
2022/08/05 21:41:32;;;;;;;14.93;8.80;;;;;;;24.12;61.42;101076.50;10570509;28;20032;-78
2022/08/05 21:46:34;;;;;;;9.77;6.63;;;;;;;24.08;61.75;101064.38;10583288;28;20044;-77
2022/08/05 21:51:36;;;;;;;10.98;6.55;;;;;;;24.05;61.72;101065.13;10586771;28;20051;-79
2022/08/05 21:56:38;;;;;;;9.13;6.05;;;;;;;24.00;62.84;101062.59;10586351;28;20043;-79
2022/08/05 22:01:41;;;;;;;8.45;6.47;;;;;;;23.96;62.85;101061.69;10565520;28;20062;-78
2022/08/05 22:06:43;;;;;;;11.35;7.53;;;;;;;23.91;63.29;101059.16;10584536;28;20043;-79
2022/08/05 22:11:46;;;;;;;9.15;6.78;;;;;;;23.90;63.52;101057.53;10584437;28;20052;-80
2022/08/05 22:16:48;;;;;;;10.70;7.00;;;;;;;23.85;63.90;101058.63;10556772;28;20039;-77
2022/08/05 22:21:50;;;;;;;10.38;7.22;;;;;;;23.79;63.20;101065.66;10584262;28;20043;-78
2022/08/05 22:32:13;;;;;;;9.70;6.75;;;;;;;23.70;64.10;101056.59;10585357;28;20488;-79
2022/08/05 22:37:15;;;;;;;10.82;7.20;;;;;;;23.67;64.46;101063.75;10560120;28;20040;-78
2022/08/05 22:42:17;;;;;;;14.65;6.90;;;;;;;23.62;65.45;101054.81;10562183;28;20077;-78
2022/08/05 22:47:19;;;;;;;9.98;6.90;;;;;;;23.58;64.84;101063.09;10561754;28;20409;-79
2022/08/05 22:52:21;;;;;;;11.55;7.10;;;;;;;23.54;65.66;101056.56;10580726;28;20044;-82
2022/08/05 22:57:24;;;;;;;8.57;6.43;;;;;;;23.52;65.84;101050.50;10562680;28;20103;-80
2022/08/05 23:02:26;;;;;;;9.95;7.38;;;;;;;23.54;65.16;101044.53;10582694;28;20429;-78
2022/08/05 23:07:28;;;;;;;9.65;6.93;;;;;;;23.54;65.76;101048.16;10563657;28;20039;-79
2022/08/05 23:12:30;;;;;;;9.55;6.93;;;;;;;23.53;65.39;101042.91;10563337;28;20052;-81
2022/08/05 23:17:33;;;;;;;7.80;6.50;;;;;;;23.56;65.87;101042.19;10561577;28;20051;-80
2022/08/05 23:22:35;;;;;;;8.85;6.95;;;;;;;23.55;65.39;101040.56;10582343;28;20036;-80
2022/08/05 23:27:37;;;;;;;9.93;6.70;;;;;;;23.54;65.62;101039.75;10564539;28;20035;-80
2022/08/05 23:32:39;;;;;;;15.48;7.57;;;;;;;23.51;66.02;101036.84;10578341;28;20051;-79